createdAt,value
2022-12-25T00:00:48.674Z,94.97
2022-12-25T00:02:20.351Z,94.83
2022-12-25T00:03:52.193Z,94.74
2022-12-25T00:05:23.913Z,96.51
2022-12-25T00:06:56.037Z,95.82
2022-12-25T00:08:27.650Z,96.11
2022-12-25T00:09:59.272Z,95.68
2022-12-25T00:11:31.026Z,95.67
2022-12-25T00:13:02.952Z,95.95
2022-12-25T00:14:34.545Z,95.79
2022-12-25T00:16:08.904Z,95.22
2022-12-25T00:17:40.511Z,95.59
2022-12-25T00:19:12.263Z,96.28
2022-12-25T00:20:43.883Z,96.69
2022-12-25T00:22:15.579Z,95.40
2022-12-25T00:23:47.214Z,95.15
2022-12-25T00:25:18.826Z,95.24
2022-12-25T00:26:50.472Z,95.01
2022-12-25T00:28:22.442Z,95.62
2022-12-25T00:29:54.065Z,95.43
2022-12-25T00:31:27.267Z,94.69
2022-12-25T00:32:58.933Z,95.48
2022-12-25T00:34:30.512Z,95.26
2022-12-25T00:36:02.169Z,95.82
2022-12-25T00:37:33.818Z,96.21
2022-12-25T00:39:06.970Z,96.88
2022-12-25T00:40:43.003Z,95.56
2022-12-25T00:42:20.387Z,96.07
2022-12-25T00:43:52.148Z,95.59
2022-12-25T00:45:23.789Z,95.78
2022-12-25T00:46:56.781Z,96.24
2022-12-25T00:48:28.768Z,95.18
2022-12-25T00:50:00.359Z,95.92
2022-12-25T00:51:32.183Z,95.82
2022-12-25T00:53:03.911Z,97.13
2022-12-25T00:54:35.659Z,96.00
2022-12-25T00:56:08.155Z,96.23
2022-12-25T00:57:39.740Z,96.01
2022-12-25T00:59:11.424Z,96.34
2022-12-25T01:00:43.088Z,96.31
2022-12-25T01:02:25.470Z,95.59
2022-12-25T01:03:57.441Z,95.48
2022-12-25T01:05:29.071Z,96.81
2022-12-25T01:07:00.692Z,97.07
2022-12-25T01:08:34.221Z,97.22
2022-12-25T01:10:22.269Z,96.38
2022-12-25T01:11:53.889Z,97.61
2022-12-25T01:13:25.598Z,96.85
2022-12-25T01:14:57.207Z,96.06
2022-12-25T01:16:28.984Z,95.86
2022-12-25T01:18:07.389Z,96.68
2022-12-25T01:19:39.699Z,96.43
2022-12-25T01:21:11.915Z,96.61
2022-12-25T01:22:43.747Z,96.03
2022-12-25T01:24:15.419Z,95.76
2022-12-25T01:25:47.009Z,96.22
2022-12-25T01:27:18.681Z,96.00
2022-12-25T01:28:50.420Z,95.75
2022-12-25T01:30:22.043Z,95.45
2022-12-25T01:31:53.740Z,95.91
2022-12-25T01:33:26.806Z,95.86
2022-12-25T01:34:58.426Z,97.13
2022-12-25T01:36:30.122Z,97.10
2022-12-25T01:38:01.778Z,97.89
2022-12-25T01:39:33.443Z,97.50
2022-12-25T01:41:05.040Z,97.73
2022-12-25T01:42:36.698Z,97.61
2022-12-25T01:44:29.147Z,97.00
2022-12-25T01:46:03.699Z,96.73
2022-12-25T01:47:35.364Z,97.37
2022-12-25T01:49:12.063Z,97.19
2022-12-25T01:50:44.725Z,97.41
2022-12-25T01:52:23.656Z,97.32
2022-12-25T01:53:55.967Z,97.00
2022-12-25T01:55:27.634Z,97.61
2022-12-25T01:57:00.709Z,97.72
2022-12-25T01:58:32.361Z,96.99
2022-12-25T02:00:04.556Z,97.06
2022-12-25T02:01:36.374Z,96.44
2022-12-25T02:03:08.179Z,96.04
2022-12-25T02:04:43.226Z,95.85
2022-12-25T02:06:14.834Z,97.89
2022-12-25T02:07:46.631Z,97.90
2022-12-25T02:09:18.397Z,97.59
2022-12-25T02:10:50.077Z,97.32
2022-12-25T02:12:23.125Z,96.54
2022-12-25T02:13:54.785Z,97.76
2022-12-25T02:15:28.137Z,96.98
2022-12-25T02:17:10.535Z,96.00
2022-12-25T02:18:43.839Z,96.48
2022-12-25T02:20:46.360Z,97.35
2022-12-25T02:22:23.514Z,96.94
2022-12-25T02:24:18.966Z,95.54
2022-12-25T02:25:56.379Z,96.32
2022-12-25T02:27:46.674Z,96.25
2022-12-25T02:29:20.908Z,96.71
2022-12-25T02:30:53.761Z,96.92
2022-12-25T02:32:28.064Z,97.88
2022-12-25T02:34:09.465Z,98.29
2022-12-25T02:35:41.101Z,98.11
2022-12-25T02:37:14.512Z,97.11
2022-12-25T02:39:04.601Z,97.39
2022-12-25T02:40:38.360Z,97.21
2022-12-25T02:42:12.620Z,97.11
2022-12-25T02:44:04.087Z,96.69
2022-12-25T02:45:56.661Z,97.41
2022-12-25T02:47:47.029Z,96.67
2022-12-25T02:49:38.789Z,96.32
2022-12-25T02:51:30.250Z,96.38
2022-12-25T02:53:20.624Z,96.79
2022-12-25T02:55:13.245Z,98.29
2022-12-25T02:57:03.660Z,96.89
2022-12-25T02:58:53.980Z,96.98
2022-12-25T03:00:45.730Z,97.64
2022-12-25T03:02:36.237Z,96.56
2022-12-25T03:04:28.180Z,97.02
2022-12-25T03:06:20.305Z,97.72
2022-12-25T03:07:51.891Z,97.88
2022-12-25T03:09:43.509Z,96.86
2022-12-25T03:11:33.555Z,97.41
2022-12-25T03:13:07.618Z,96.12
2022-12-25T03:14:57.875Z,96.96
2022-12-25T03:16:49.483Z,97.75
2022-12-25T03:18:24.374Z,97.89
2022-12-25T03:20:14.487Z,97.17
2022-12-25T03:22:04.859Z,96.41
2022-12-25T03:23:55.838Z,96.19
2022-12-25T03:25:46.148Z,96.00
2022-12-25T03:27:17.753Z,95.92
2022-12-25T03:28:49.425Z,95.75
2022-12-25T03:30:39.861Z,96.22
2022-12-25T03:32:19.140Z,96.47
2022-12-25T03:34:34.283Z,95.57
2022-12-25T03:36:08.744Z,95.85
2022-12-25T03:37:45.640Z,96.01
2022-12-25T03:39:38.636Z,95.98
2022-12-25T03:41:31.472Z,96.01
2022-12-25T03:43:25.501Z,96.94
2022-12-25T03:45:25.827Z,97.48
2022-12-25T03:47:19.345Z,96.58
2022-12-25T03:49:12.825Z,96.85
2022-12-25T03:51:04.054Z,96.50
2022-12-25T03:52:54.482Z,96.47
2022-12-25T03:54:45.042Z,95.94
2022-12-25T03:56:35.274Z,96.51
2022-12-25T03:58:35.739Z,96.96
2022-12-25T04:00:27.055Z,96.76
2022-12-25T04:02:17.470Z,96.45
2022-12-25T04:04:07.542Z,95.86
2022-12-25T04:06:09.931Z,95.61
2022-12-25T04:07:59.863Z,95.49
2022-12-25T04:09:50.177Z,95.46
2022-12-25T04:11:40.472Z,95.42
2022-12-25T04:13:30.750Z,95.92
2022-12-25T04:15:20.926Z,96.15
2022-12-25T04:17:11.147Z,97.53
2022-12-25T04:19:01.635Z,97.91
2022-12-25T04:20:52.049Z,97.06
2022-12-25T04:22:45.247Z,98.13
2022-12-25T04:24:35.590Z,96.70
2022-12-25T04:26:26.036Z,96.78
2022-12-25T04:28:20.090Z,96.76
2022-12-25T04:30:10.428Z,96.25
2022-12-25T04:32:00.735Z,96.06
2022-12-25T04:33:51.196Z,96.25
2022-12-25T04:35:41.792Z,96.76
2022-12-25T04:37:13.419Z,97.07
2022-12-25T04:38:46.421Z,96.23
2022-12-25T04:40:18.097Z,96.62
2022-12-25T04:41:49.712Z,97.11
2022-12-25T04:43:24.252Z,97.13
2022-12-25T04:44:55.863Z,96.20
2022-12-25T04:46:27.520Z,95.92
2022-12-25T04:47:59.558Z,97.01
2022-12-25T04:49:31.195Z,96.82
2022-12-25T04:51:13.146Z,96.81
2022-12-25T04:52:44.753Z,96.47
2022-12-25T04:54:17.756Z,96.00
2022-12-25T04:55:49.340Z,95.68
2022-12-25T04:57:20.919Z,96.17
2022-12-25T04:58:52.571Z,96.64
2022-12-25T05:00:24.176Z,96.76
2022-12-25T05:01:55.812Z,97.04
2022-12-25T05:03:27.571Z,96.27
2022-12-25T05:04:59.214Z,96.66
2022-12-25T05:06:30.799Z,96.29
2022-12-25T05:08:02.456Z,96.97
2022-12-25T05:09:35.419Z,96.56
2022-12-25T05:11:07.884Z,97.08
2022-12-25T05:12:39.497Z,96.78
2022-12-25T05:14:11.137Z,96.46
2022-12-25T05:15:43.156Z,95.89
2022-12-25T05:17:14.827Z,95.76
2022-12-25T05:18:48.333Z,96.04
2022-12-25T05:20:19.935Z,96.00
2022-12-25T05:21:51.522Z,95.98
2022-12-25T05:23:24.293Z,95.99
2022-12-25T05:24:57.304Z,96.08
2022-12-25T05:26:28.923Z,96.55
2022-12-25T05:28:00.628Z,96.53
2022-12-25T05:29:32.261Z,95.97
2022-12-25T05:31:03.934Z,96.13
2022-12-25T05:32:35.622Z,95.75
2022-12-25T05:34:07.221Z,96.21
2022-12-25T05:35:39.149Z,96.06
2022-12-25T05:37:10.833Z,95.67
2022-12-25T05:38:42.423Z,96.37
2022-12-25T05:40:15.550Z,97.36
2022-12-25T05:41:47.196Z,97.17
2022-12-25T05:43:19.671Z,97.73
2022-12-25T05:44:51.350Z,97.08
2022-12-25T05:46:23.719Z,96.37
2022-12-25T05:47:55.538Z,96.78
2022-12-25T05:49:27.214Z,96.81
2022-12-25T05:50:58.826Z,96.91
2022-12-25T05:52:31.453Z,97.82
2022-12-25T05:54:03.185Z,97.88
2022-12-25T05:55:36.286Z,97.60
2022-12-25T05:57:07.925Z,97.77
2022-12-25T05:58:39.635Z,96.87
2022-12-25T06:00:12.197Z,97.00
2022-12-25T06:01:43.921Z,96.59
2022-12-25T06:03:15.740Z,97.64
2022-12-25T06:04:47.522Z,96.56
2022-12-25T06:06:19.185Z,95.95
2022-12-25T06:07:50.799Z,95.98
2022-12-25T06:09:22.453Z,96.15
2022-12-25T06:10:55.413Z,97.05
2022-12-25T06:12:27.015Z,96.26
2022-12-25T06:13:58.623Z,96.25
2022-12-25T06:15:30.238Z,96.29
2022-12-25T06:17:01.929Z,96.06
2022-12-25T06:18:35.255Z,95.71
2022-12-25T06:20:08.068Z,96.50
2022-12-25T06:21:39.682Z,95.67
2022-12-25T06:23:11.327Z,96.11
2022-12-25T06:24:42.974Z,95.90
2022-12-25T06:26:17.682Z,95.48
2022-12-25T06:27:49.344Z,95.53
2022-12-25T06:29:20.957Z,95.61
2022-12-25T06:30:52.593Z,95.15
2022-12-25T06:32:24.226Z,95.68
2022-12-25T06:33:55.879Z,95.42
2022-12-25T06:35:27.626Z,95.67
2022-12-25T06:36:59.210Z,95.40
2022-12-25T06:38:30.813Z,95.54
2022-12-25T06:40:02.540Z,94.77
2022-12-25T06:41:35.798Z,95.14
2022-12-25T06:43:07.390Z,96.03
2022-12-25T06:44:39.309Z,95.99
2022-12-25T06:46:12.083Z,95.86
2022-12-25T06:47:43.760Z,95.02
2022-12-25T06:49:15.436Z,95.50
2022-12-25T06:50:47.041Z,95.62
2022-12-25T06:52:18.626Z,95.42
2022-12-25T06:53:50.602Z,95.69
2022-12-25T06:55:22.210Z,95.66
2022-12-25T06:56:55.200Z,95.25
2022-12-25T06:58:26.952Z,95.19
2022-12-25T06:59:58.578Z,95.95
2022-12-25T07:01:31.082Z,95.71
2022-12-25T07:03:02.886Z,95.38
2022-12-25T07:04:37.970Z,95.28
2022-12-25T07:06:09.552Z,94.23
2022-12-25T07:07:41.143Z,95.91
2022-12-25T07:09:12.799Z,95.04
2022-12-25T07:10:44.435Z,94.83
2022-12-25T07:12:18.664Z,94.29
2022-12-25T07:13:50.288Z,94.16
2022-12-25T07:15:21.994Z,94.62
2022-12-25T07:16:53.658Z,95.57
2022-12-25T07:18:26.401Z,95.03
2022-12-25T07:19:58.009Z,94.77
2022-12-25T07:21:29.631Z,95.03
2022-12-25T07:23:01.255Z,94.94
2022-12-25T07:24:32.885Z,94.84
2022-12-25T07:26:04.730Z,94.79
2022-12-25T07:27:37.736Z,96.27
2022-12-25T07:29:09.364Z,96.99
2022-12-25T07:30:41.249Z,96.53
2022-12-25T07:32:12.931Z,95.44
2022-12-25T07:33:44.803Z,94.96
2022-12-25T07:35:16.463Z,95.06
2022-12-25T07:36:48.235Z,95.39
2022-12-25T07:38:19.848Z,95.62
2022-12-25T07:39:51.725Z,95.98
2022-12-25T07:41:23.392Z,95.56
2022-12-25T07:42:56.401Z,95.24
2022-12-25T07:44:28.040Z,97.36
2022-12-25T07:46:00.050Z,96.97
2022-12-25T07:47:31.683Z,96.66
2022-12-25T07:49:03.341Z,95.60
2022-12-25T07:50:34.960Z,96.04
2022-12-25T07:52:06.526Z,94.82
2022-12-25T07:53:38.255Z,95.12
2022-12-25T07:55:10.080Z,94.99
2022-12-25T07:56:41.757Z,94.57
2022-12-25T07:58:18.564Z,94.84
2022-12-25T07:59:54.755Z,94.63
2022-12-25T08:01:26.957Z,94.93
2022-12-25T08:02:59.356Z,94.87
2022-12-25T08:04:31.297Z,95.31
2022-12-25T08:06:03.596Z,95.18
2022-12-25T08:07:36.016Z,95.60
2022-12-25T08:09:08.561Z,96.58
2022-12-25T08:10:45.155Z,96.02
2022-12-25T08:12:16.765Z,95.64
2022-12-25T08:13:49.769Z,95.65
2022-12-25T08:15:21.423Z,95.69
2022-12-25T08:16:53.076Z,96.94
2022-12-25T08:18:29.675Z,98.30
2022-12-25T08:20:01.954Z,97.38
2022-12-25T08:21:33.602Z,96.66
2022-12-25T08:23:05.387Z,97.38
2022-12-25T08:24:36.994Z,96.61
2022-12-25T08:26:10.532Z,96.89
2022-12-25T08:27:42.137Z,96.26
2022-12-25T08:29:15.180Z,96.31
2022-12-25T08:30:46.924Z,96.31
2022-12-25T08:32:18.609Z,97.87
2022-12-25T08:33:52.930Z,96.70
2022-12-25T08:35:26.212Z,97.75
2022-12-25T08:36:57.812Z,98.69
2022-12-25T08:38:29.498Z,98.41
2022-12-25T08:40:01.134Z,98.06
2022-12-25T08:41:32.809Z,97.41
2022-12-25T08:43:04.563Z,98.84
2022-12-25T08:44:37.762Z,98.13
2022-12-25T08:46:09.671Z,98.58
2022-12-25T08:47:41.468Z,98.25
2022-12-25T08:49:13.082Z,98.71
2022-12-25T08:50:45.586Z,97.98
2022-12-25T08:52:17.242Z,97.50
2022-12-25T08:53:49.257Z,97.39
2022-12-25T08:55:21.074Z,97.90
2022-12-25T08:56:56.085Z,97.62
2022-12-25T08:58:30.313Z,97.38
2022-12-25T09:00:03.923Z,97.36
2022-12-25T09:01:35.849Z,97.14
2022-12-25T09:03:07.789Z,96.30
2022-12-25T09:04:39.511Z,96.39
2022-12-25T09:06:12.108Z,95.33
2022-12-25T09:07:43.768Z,94.41
2022-12-25T09:09:15.470Z,95.36
2022-12-25T09:10:47.240Z,95.81
2022-12-25T09:12:18.872Z,96.77
2022-12-25T09:13:50.524Z,96.10
2022-12-25T09:15:23.576Z,95.50
2022-12-25T09:16:55.292Z,96.20
2022-12-25T09:18:26.949Z,95.55
2022-12-25T09:19:58.680Z,94.86
2022-12-25T09:21:30.433Z,93.71
2022-12-25T09:23:02.079Z,93.67
2022-12-25T09:24:33.705Z,96.12
2022-12-25T09:26:06.920Z,96.59
2022-12-25T09:27:38.575Z,98.01
2022-12-25T09:29:10.229Z,98.43
2022-12-25T09:30:43.297Z,97.00
2022-12-25T09:32:14.966Z,97.13
2022-12-25T09:33:46.632Z,97.54
2022-12-25T09:35:19.084Z,97.87
2022-12-25T09:36:50.726Z,98.39
2022-12-25T09:38:22.423Z,98.33
2022-12-25T09:39:54.154Z,98.62
2022-12-25T09:41:28.782Z,98.74
2022-12-25T09:43:00.587Z,99.28
2022-12-25T09:44:33.632Z,99.76
2022-12-25T09:46:07.075Z,99.50
2022-12-25T09:47:39.806Z,99.44
2022-12-25T09:49:15.389Z,99.37
2022-12-25T09:50:48.726Z,99.68
2022-12-25T09:52:22.164Z,99.94
2022-12-25T09:53:57.811Z,100.00
2022-12-25T09:55:30.738Z,100.00
2022-12-25T09:57:02.554Z,100.00
2022-12-25T09:58:34.272Z,100.00
2022-12-25T10:00:13.581Z,99.49
2022-12-25T10:01:53.368Z,99.82
2022-12-25T10:03:33.146Z,99.48
2022-12-25T10:05:31.319Z,99.47
2022-12-25T10:07:06.713Z,99.14
2022-12-25T10:08:49.325Z,99.13
2022-12-25T10:10:28.356Z,98.52
2022-12-25T10:12:06.761Z,98.65
2022-12-25T10:13:48.435Z,98.82
2022-12-25T10:15:35.790Z,98.71
2022-12-25T10:17:21.555Z,98.88
2022-12-25T10:19:03.851Z,98.73
2022-12-25T10:20:40.675Z,98.99
2022-12-25T10:22:14.589Z,99.24
2022-12-25T10:23:48.025Z,99.17
2022-12-25T10:25:21.116Z,99.27
2022-12-25T10:26:52.729Z,99.05
2022-12-25T10:28:26.693Z,99.34
2022-12-25T10:29:58.388Z,99.48
2022-12-25T10:31:30.792Z,99.65
2022-12-25T10:33:03.855Z,99.97
2022-12-25T10:34:36.094Z,100.00
2022-12-25T10:36:09.614Z,100.00
2022-12-25T10:37:41.826Z,99.90
2022-12-25T10:39:16.117Z,99.59
2022-12-25T10:40:58.922Z,99.48
2022-12-25T10:42:34.776Z,100.00
2022-12-25T10:44:12.944Z,100.00
2022-12-25T10:45:45.544Z,100.00
2022-12-25T10:48:07.722Z,100.00
2022-12-25T10:50:11.520Z,100.00
2022-12-25T10:52:08.263Z,100.00
2022-12-25T10:53:41.117Z,100.00
2022-12-25T10:55:13.450Z,100.00
2022-12-25T10:56:53.001Z,100.00
2022-12-25T10:58:24.711Z,99.61
2022-12-25T10:59:56.581Z,99.76
2022-12-25T11:01:28.589Z,99.96
2022-12-25T11:03:00.809Z,99.83
2022-12-25T11:04:33.493Z,99.70
2022-12-25T11:06:07.219Z,100.00
2022-12-25T11:07:50.838Z,100.00
2022-12-25T11:09:22.639Z,99.90
2022-12-25T11:10:56.329Z,99.88
2022-12-25T11:12:30.739Z,100.00
2022-12-25T11:14:02.474Z,100.00
2022-12-25T11:15:36.672Z,99.48
2022-12-25T11:17:08.530Z,100.00
2022-12-25T11:18:45.676Z,100.00
2022-12-25T11:20:17.724Z,100.00
2022-12-25T11:21:52.592Z,100.00
2022-12-25T11:23:25.637Z,100.00
2022-12-25T11:24:57.310Z,100.00
2022-12-25T11:26:29.991Z,100.00
2022-12-25T11:28:02.606Z,100.00
2022-12-25T11:29:37.136Z,100.00
2022-12-25T11:31:10.083Z,100.00
2022-12-25T11:32:43.569Z,100.00
2022-12-25T11:34:19.661Z,99.62
2022-12-25T11:35:52.994Z,100.00
2022-12-25T11:37:29.509Z,100.00
2022-12-25T11:39:01.815Z,100.00
2022-12-25T11:40:35.801Z,100.00
2022-12-25T11:42:13.181Z,100.00
2022-12-25T11:43:47.628Z,100.00
2022-12-25T11:45:20.839Z,100.00
2022-12-25T11:46:54.951Z,100.00
2022-12-25T11:48:28.346Z,100.00
2022-12-25T11:50:03.926Z,100.00
2022-12-25T11:51:36.963Z,100.00
2022-12-25T11:53:15.033Z,100.00
2022-12-25T11:54:50.587Z,100.00
2022-12-25T11:56:23.404Z,100.00
2022-12-25T11:57:56.646Z,100.00
2022-12-25T11:59:34.630Z,100.00
2022-12-25T12:01:07.522Z,100.00
2022-12-25T12:02:42.632Z,100.00
2022-12-25T12:04:17.652Z,100.00
2022-12-25T12:05:51.929Z,99.93
2022-12-25T12:07:24.701Z,99.66
2022-12-25T12:09:03.830Z,100.00
2022-12-25T12:10:41.563Z,100.00
2022-12-25T12:12:16.475Z,100.00
2022-12-25T12:13:56.061Z,100.00
2022-12-25T12:15:29.271Z,100.00
2022-12-25T12:17:00.883Z,100.00
2022-12-25T12:18:33.045Z,100.00
2022-12-25T12:20:12.203Z,100.00
2022-12-25T12:21:47.833Z,100.00
2022-12-25T12:23:21.494Z,99.66
2022-12-25T12:24:58.123Z,99.82
2022-12-25T12:26:31.895Z,99.98
2022-12-25T12:28:05.786Z,99.94
2022-12-25T12:29:39.794Z,100.00
2022-12-25T12:31:11.478Z,99.38
2022-12-25T12:32:43.516Z,99.67
2022-12-25T12:34:18.976Z,99.45
2022-12-25T12:35:50.705Z,99.15
2022-12-25T12:37:25.400Z,99.25
2022-12-25T12:38:57.087Z,99.16
2022-12-25T12:40:34.197Z,99.64
2022-12-25T12:42:12.560Z,98.95
2022-12-25T12:43:45.953Z,99.20
2022-12-25T12:45:18.732Z,99.25
2022-12-25T12:46:51.869Z,99.28
2022-12-25T12:48:25.851Z,99.62
2022-12-25T12:49:58.704Z,99.69
2022-12-25T12:51:31.962Z,99.79
2022-12-25T12:53:17.884Z,99.55
2022-12-25T12:54:55.615Z,99.80
2022-12-25T12:56:28.644Z,100.00
2022-12-25T12:58:00.537Z,100.00
2022-12-25T12:59:39.004Z,100.00
2022-12-25T13:01:24.235Z,100.00
2022-12-25T13:03:22.455Z,99.74
2022-12-25T13:04:56.732Z,99.72
2022-12-25T13:06:31.504Z,100.00
2022-12-25T13:08:09.217Z,99.76
2022-12-25T13:09:50.492Z,99.61
2022-12-25T13:11:23.771Z,99.41
2022-12-25T13:12:57.858Z,99.58
2022-12-25T13:14:29.476Z,99.91
2022-12-25T13:16:01.148Z,99.74
2022-12-25T13:17:32.867Z,99.46
2022-12-25T13:19:05.470Z,99.59
2022-12-25T13:20:41.344Z,99.25
2022-12-25T13:22:22.500Z,99.32
2022-12-25T13:23:57.950Z,98.85
2022-12-25T13:25:29.721Z,98.84
2022-12-25T13:27:01.451Z,99.18
2022-12-25T13:28:38.150Z,99.42
2022-12-25T13:30:14.444Z,99.35
2022-12-25T13:31:46.101Z,99.69
2022-12-25T13:33:19.334Z,100.00
2022-12-25T13:34:51.248Z,99.77
2022-12-25T13:36:22.977Z,99.45
2022-12-25T13:37:54.786Z,99.76
2022-12-25T13:39:26.744Z,100.00
2022-12-25T13:41:18.636Z,99.85
2022-12-25T13:42:50.319Z,99.90
2022-12-25T13:44:24.419Z,100.00
2022-12-25T13:45:56.066Z,99.99
2022-12-25T13:47:35.147Z,99.86
2022-12-25T13:49:10.637Z,100.00
2022-12-25T13:50:51.452Z,99.69
2022-12-25T13:52:27.644Z,99.51
2022-12-25T13:54:05.650Z,100.00
2022-12-25T13:55:37.289Z,100.00
2022-12-25T13:57:13.146Z,100.00
2022-12-25T13:58:48.576Z,100.00
2022-12-25T14:00:23.294Z,100.00
2022-12-25T14:01:57.779Z,100.00
2022-12-25T14:03:33.347Z,100.00
2022-12-25T14:05:24.791Z,99.82
2022-12-25T14:06:56.516Z,100.00
2022-12-25T14:08:30.747Z,100.00
2022-12-25T14:10:02.429Z,100.00
2022-12-25T14:11:34.243Z,99.73
2022-12-25T14:13:07.460Z,100.00
2022-12-25T14:14:39.118Z,100.00
2022-12-25T14:16:12.219Z,100.00
2022-12-25T14:17:43.847Z,100.00
2022-12-25T14:19:24.852Z,100.00
2022-12-25T14:20:59.065Z,100.00
2022-12-25T14:22:32.139Z,100.00
2022-12-25T14:24:04.346Z,100.00
2022-12-25T14:25:42.893Z,100.00
2022-12-25T14:27:17.932Z,100.00
2022-12-25T14:28:50.346Z,100.00
2022-12-25T14:30:21.977Z,100.00
2022-12-25T14:31:56.321Z,100.00
2022-12-25T14:33:28.072Z,100.00
2022-12-25T14:35:02.723Z,100.00
2022-12-25T14:36:34.458Z,100.00
2022-12-25T14:38:06.148Z,100.00
2022-12-25T14:39:38.358Z,100.00
2022-12-25T14:41:25.774Z,100.00
2022-12-25T14:42:58.568Z,100.00
2022-12-25T14:44:32.539Z,100.00
2022-12-25T14:46:06.614Z,100.00
2022-12-25T14:47:50.996Z,100.00
2022-12-25T14:49:23.608Z,100.00
2022-12-25T14:50:57.861Z,100.00
2022-12-25T14:52:31.370Z,100.00
2022-12-25T14:54:03.904Z,100.00
2022-12-25T14:55:35.602Z,100.00
2022-12-25T14:57:07.278Z,100.00
2022-12-25T14:58:41.135Z,100.00
2022-12-25T15:00:21.781Z,100.00
2022-12-25T15:01:54.746Z,100.00
2022-12-25T15:03:30.408Z,100.00
2022-12-25T15:05:02.107Z,100.00
2022-12-25T15:06:33.819Z,100.00
2022-12-25T15:08:18.954Z,100.00
2022-12-25T15:09:50.588Z,100.00
2022-12-25T15:11:22.241Z,100.00
2022-12-25T15:12:53.891Z,100.00
2022-12-25T15:14:26.089Z,100.00
2022-12-25T15:15:59.647Z,100.00
2022-12-25T15:17:31.297Z,99.81
2022-12-25T15:19:04.323Z,100.00
2022-12-25T15:20:35.949Z,100.00
2022-12-25T15:22:09.311Z,100.00
2022-12-25T15:23:41.120Z,100.00
2022-12-25T15:25:14.402Z,100.00
2022-12-25T15:26:46.176Z,100.00
2022-12-25T15:28:18.001Z,100.00
2022-12-25T15:31:42.065Z,100.00
2022-12-25T15:33:14.588Z,100.00
2022-12-25T15:34:49.849Z,99.99
2022-12-25T15:36:21.896Z,100.00
2022-12-25T15:37:53.703Z,99.94
2022-12-25T15:39:25.343Z,100.00
2022-12-25T15:40:57.206Z,100.00
2022-12-25T15:42:28.913Z,100.00
2022-12-25T15:44:00.738Z,100.00
2022-12-25T15:45:32.434Z,99.74
2022-12-25T15:47:04.263Z,99.74
2022-12-25T15:48:35.920Z,99.72
2022-12-25T15:50:09.931Z,99.84
2022-12-25T15:51:42.042Z,99.37
2022-12-25T15:53:15.790Z,99.65
2022-12-25T15:54:47.401Z,99.38
2022-12-25T15:56:19.230Z,99.17
2022-12-25T15:57:54.511Z,99.51
2022-12-25T15:59:26.167Z,99.12
2022-12-25T16:00:58.094Z,99.48
2022-12-25T16:02:29.830Z,99.36
2022-12-25T16:04:01.591Z,99.52
2022-12-25T16:05:36.684Z,99.30
2022-12-25T16:07:10.519Z,99.40
2022-12-25T16:08:42.244Z,98.78
2022-12-25T16:10:16.134Z,98.80
2022-12-25T16:11:47.889Z,98.98
2022-12-25T16:13:19.659Z,98.86
2022-12-25T16:14:51.371Z,98.73
2022-12-25T16:16:23.249Z,98.78
2022-12-25T16:17:55.037Z,99.43
2022-12-25T16:19:26.744Z,99.18
2022-12-25T16:20:59.985Z,99.33
2022-12-25T16:22:39.519Z,99.33
2022-12-25T16:24:11.323Z,98.93
2022-12-25T16:25:42.977Z,98.88
2022-12-25T16:27:14.921Z,98.82
2022-12-25T16:28:46.718Z,99.18
2022-12-25T16:30:19.363Z,99.55
2022-12-25T16:31:51.079Z,99.73
2022-12-25T16:33:36.091Z,98.31
2022-12-25T16:35:17.896Z,98.96
2022-12-25T16:36:56.557Z,98.80
2022-12-25T16:38:31.774Z,99.44
2022-12-25T16:40:03.830Z,99.23
2022-12-25T16:41:35.660Z,99.08
2022-12-25T16:43:07.467Z,99.56
2022-12-25T16:44:39.162Z,99.35
2022-12-25T16:46:12.144Z,99.35
2022-12-25T16:47:44.211Z,99.22
2022-12-25T16:49:15.914Z,98.92
2022-12-25T16:50:47.902Z,99.30
2022-12-25T16:52:21.255Z,99.48
2022-12-25T16:53:53.576Z,99.06
2022-12-25T16:55:29.881Z,99.24
2022-12-25T16:57:01.976Z,99.13
2022-12-25T16:58:33.877Z,99.00
2022-12-25T17:00:10.132Z,99.11
2022-12-25T17:01:43.432Z,99.39
2022-12-25T17:05:15.835Z,99.33
2022-12-25T17:06:49.857Z,99.61
2022-12-25T17:08:23.099Z,99.64
2022-12-25T17:09:57.065Z,100.00
2022-12-25T17:11:30.371Z,100.00
2022-12-25T17:13:04.310Z,99.51
2022-12-25T17:14:37.985Z,99.45
2022-12-25T17:16:14.605Z,99.10
2022-12-25T17:17:46.439Z,99.11
2022-12-25T17:19:21.517Z,99.20
2022-12-25T17:20:53.412Z,99.34
2022-12-25T17:22:25.152Z,98.73
2022-12-25T17:24:02.261Z,98.76
2022-12-25T17:25:35.277Z,99.12
2022-12-25T17:27:09.224Z,99.28
2022-12-25T17:28:41.231Z,99.06
2022-12-25T17:30:13.220Z,99.29
2022-12-25T17:31:45.222Z,99.27
2022-12-25T17:33:16.924Z,98.84
2022-12-25T17:34:50.655Z,98.84
2022-12-25T17:36:23.694Z,99.17
2022-12-25T17:37:56.075Z,99.09
2022-12-25T17:39:29.403Z,98.72
2022-12-25T17:41:02.406Z,99.09
2022-12-25T17:42:34.369Z,98.65
2022-12-25T17:44:06.142Z,98.97
2022-12-25T17:45:37.941Z,98.90
2022-12-25T17:47:12.252Z,99.41
2022-12-25T17:48:44.555Z,99.00
2022-12-25T17:50:16.377Z,99.36
2022-12-25T17:51:48.247Z,99.56
2022-12-25T17:53:20.052Z,99.75
2022-12-25T17:54:53.159Z,99.35
2022-12-25T17:56:27.087Z,99.44
2022-12-25T17:57:58.945Z,99.71
2022-12-25T17:59:30.627Z,99.92
2022-12-25T18:01:05.300Z,99.81
2022-12-25T18:02:38.080Z,99.38
2022-12-25T18:04:10.123Z,99.17
2022-12-25T18:05:42.758Z,99.41
2022-12-25T18:07:14.614Z,99.50
2022-12-25T18:08:50.069Z,100.00
2022-12-25T18:10:23.354Z,100.00
2022-12-25T18:11:57.991Z,99.27
2022-12-25T18:13:29.816Z,99.38
2022-12-25T18:15:01.507Z,99.01
2022-12-25T18:16:35.276Z,99.73
2022-12-25T18:18:06.965Z,99.54
2022-12-25T18:19:38.826Z,99.65
2022-12-25T18:21:12.545Z,100.00
2022-12-25T18:22:44.419Z,100.00
2022-12-25T18:24:16.117Z,100.00
2022-12-25T18:25:49.202Z,100.00
2022-12-25T18:27:20.856Z,100.00
2022-12-25T18:28:54.844Z,100.00
2022-12-25T18:30:26.793Z,100.00
2022-12-25T18:31:58.615Z,100.00
2022-12-25T18:33:30.459Z,100.00
2022-12-25T18:35:02.163Z,100.00
2022-12-25T18:36:33.826Z,100.00
2022-12-25T18:38:09.356Z,100.00
2022-12-25T18:39:41.007Z,100.00
2022-12-25T18:41:14.003Z,100.00
2022-12-25T18:42:46.549Z,100.00
2022-12-25T18:44:18.246Z,100.00
2022-12-25T18:45:56.008Z,100.00
2022-12-25T18:47:27.716Z,100.00
2022-12-25T18:48:59.389Z,100.00
2022-12-25T18:50:31.120Z,100.00
2022-12-25T18:52:48.166Z,100.00
2022-12-25T18:53:57.934Z,100.00
2022-12-25T18:55:39.464Z,100.00
2022-12-25T18:57:20.740Z,100.00
2022-12-25T18:58:52.513Z,100.00
2022-12-25T19:00:24.383Z,100.00
2022-12-25T19:01:56.345Z,100.00
2022-12-25T19:03:29.524Z,100.00
2022-12-25T19:05:01.648Z,100.00
2022-12-25T19:06:35.093Z,100.00
2022-12-25T19:08:06.869Z,100.00
2022-12-25T19:09:38.645Z,100.00
2022-12-25T19:11:10.305Z,100.00
2022-12-25T19:12:43.531Z,100.00
2022-12-25T19:14:15.367Z,100.00
2022-12-25T19:15:47.104Z,100.00
2022-12-25T19:17:18.807Z,100.00
2022-12-25T19:18:50.429Z,100.00
2022-12-25T19:20:22.056Z,100.00
2022-12-25T19:21:53.814Z,100.00
2022-12-25T19:23:25.527Z,100.00
2022-12-25T19:24:57.250Z,100.00
2022-12-25T19:26:28.947Z,100.00
2022-12-25T19:28:02.076Z,100.00
2022-12-25T19:29:33.920Z,100.00
2022-12-25T19:31:07.529Z,100.00
2022-12-25T19:32:39.455Z,100.00
2022-12-25T19:34:11.213Z,100.00
2022-12-25T19:35:46.211Z,100.00
2022-12-25T19:37:18.387Z,100.00
2022-12-25T19:38:50.165Z,100.00
2022-12-25T19:40:22.602Z,100.00
2022-12-25T19:41:54.254Z,100.00
2022-12-25T19:43:27.814Z,100.00
2022-12-25T19:44:59.684Z,100.00
2022-12-25T19:46:32.400Z,100.00
2022-12-25T19:48:04.712Z,100.00
2022-12-25T19:49:36.421Z,100.00
2022-12-25T19:51:14.859Z,100.00
2022-12-25T19:52:46.484Z,100.00
2022-12-25T19:54:20.576Z,100.00
2022-12-25T19:55:52.673Z,100.00
2022-12-25T19:57:24.417Z,100.00
2022-12-25T19:58:57.455Z,100.00
2022-12-25T20:00:29.191Z,100.00
2022-12-25T20:02:00.934Z,100.00
2022-12-25T20:03:32.918Z,100.00
2022-12-25T20:05:05.263Z,100.00
2022-12-25T20:06:38.283Z,100.00
2022-12-25T20:08:12.420Z,100.00
2022-12-25T20:09:44.093Z,100.00
2022-12-25T20:11:16.576Z,100.00
2022-12-25T20:12:48.208Z,100.00
2022-12-25T20:14:21.292Z,100.00
2022-12-25T20:15:52.905Z,100.00